Time;durP1;ratioP1;P1;durP2;ratioP2;P2;SDS_P1;SDS_P2;PMS_P1;PMS_P2;Temp;Humidity;BMP_temperature;BMP_pressure;BME280_temperature;BME280_humidity;BME280_pressure;Samples;Min_cycle;Max_cycle;Signal;HPM_P1;HPM_P2
2023/12/31 00:00:18;;;;;;;22.98;11.32;;;8.00;99.90;;;;;;4980962;28;20400;-84
2023/12/31 00:02:44;;;;;;;21.52;10.85;;;8.00;99.90;;;;;;4982219;28;20042;-85
2023/12/31 00:05:11;;;;;;;28.42;13.43;;;8.10;99.90;;;;;;4981172;28;20499;-86
2023/12/31 00:07:37;;;;;;;23.77;13.00;;;8.20;99.90;;;;;;4980299;28;20038;-87
2023/12/31 00:10:04;;;;;;;26.23;13.20;;;8.10;99.90;;;;;;4981409;28;20035;-87
2023/12/31 00:12:31;;;;;;;21.70;12.45;;;8.10;99.90;;;;;;4966224;28;20043;-87
2023/12/31 00:14:57;;;;;;;21.25;11.27;;;8.10;99.90;;;;;;4980594;28;20041;-85
2023/12/31 00:17:24;;;;;;;21.25;10.75;;;8.10;99.90;;;;;;4980644;28;20035;-87
2023/12/31 00:19:51;;;;;;;27.48;12.40;;;8.10;99.90;;;;;;4997138;28;20034;-82
2023/12/31 00:22:17;;;;;;;21.55;11.73;;;8.10;99.90;;;;;;4964445;28;20050;-83
2023/12/31 00:24:43;;;;;;;29.05;15.30;;;8.10;99.90;;;;;;4979702;28;20042;-88
2023/12/31 00:27:10;;;;;;;36.92;19.27;;;8.00;99.90;;;;;;4963592;28;20065;-87
2023/12/31 00:29:36;;;;;;;38.72;22.05;;;8.00;99.90;;;;;;4981861;28;20038;-84
2023/12/31 00:32:02;;;;;;;44.97;21.73;;;8.00;99.90;;;;;;4981415;28;20037;-75
2023/12/31 00:34:29;;;;;;;41.50;21.95;;;8.10;99.90;;;;;;4964669;28;20038;-83
2023/12/31 00:36:55;;;;;;;34.65;19.30;;;8.10;99.90;;;;;;4964419;28;20049;-86
2023/12/31 00:39:21;;;;;;;28.88;16.88;;;8.10;99.90;;;;;;4981624;28;20038;-86
2023/12/31 00:41:47;;;;;;;33.28;17.27;;;8.10;99.90;;;;;;4980487;28;20038;-80
2023/12/31 00:44:14;;;;;;;39.58;20.35;;;8.20;99.90;;;;;;4980887;28;20037;-77
2023/12/31 00:46:40;;;;;;;50.13;27.10;;;8.20;99.90;;;;;;4982539;28;20041;-88
2023/12/31 00:49:07;;;;;;;65.20;35.35;;;8.20;99.90;;;;;;4962782;28;20358;-88
2023/12/31 00:51:34;;;;;;;69.13;36.38;;;8.30;99.90;;;;;;4963312;28;20482;-86
2023/12/31 00:54:01;;;;;;;71.45;38.55;;;8.30;99.90;;;;;;4996410;28;20145;-75
2023/12/31 00:56:27;;;;;;;72.72;38.70;;;8.30;99.90;;;;;;4963912;28;20045;-81
2023/12/31 00:58:53;;;;;;;85.32;43.42;;;8.40;99.90;;;;;;4982854;28;20969;-85
2023/12/31 01:01:20;;;;;;;82.45;42.90;;;8.30;99.90;;;;;;4981956;28;20045;-89
2023/12/31 01:03:47;;;;;;;65.22;33.65;;;8.40;99.90;;;;;;4983698;28;20034;-82
2023/12/31 01:06:14;;;;;;;33.10;18.05;;;8.40;99.90;;;;;;4967207;28;20038;-84
2023/12/31 01:08:40;;;;;;;31.90;14.25;;;8.40;99.90;;;;;;4967798;28;20507;-86
2023/12/31 01:11:07;;;;;;;32.83;16.13;;;8.40;99.90;;;;;;4979245;28;20034;-86
2023/12/31 01:13:33;;;;;;;33.30;18.02;;;8.50;99.90;;;;;;4964783;28;20036;-85
2023/12/31 01:16:00;;;;;;;31.35;15.55;;;8.50;99.90;;;;;;4995265;28;20037;-87
2023/12/31 01:18:27;;;;;;;28.88;14.40;;;8.50;99.90;;;;;;4979863;28;20039;-84
2023/12/31 01:20:53;;;;;;;26.13;12.60;;;8.50;99.90;;;;;;4981879;28;20037;-86
2023/12/31 01:23:20;;;;;;;20.92;10.30;;;8.60;99.90;;;;;;4962426;28;20041;-88
2023/12/31 01:25:46;;;;;;;9.65;5.43;;;8.60;99.90;;;;;;4947177;28;20042;-77
2023/12/31 01:28:13;;;;;;;6.00;2.42;;;8.60;99.90;;;;;;4980670;28;20053;-88
2023/12/31 01:30:40;;;;;;;1.80;1.10;;;8.60;99.90;;;;;;4980229;28;20038;-85
2023/12/31 01:33:06;;;;;;;1.55;0.77;;;8.60;99.90;;;;;;4963747;28;20034;-88
2023/12/31 01:35:33;;;;;;;1.95;0.95;;;8.60;99.90;;;;;;4946656;28;20034;-87
2023/12/31 01:37:59;;;;;;;1.92;0.77;;;8.60;99.90;;;;;;4963630;28;20034;-82
2023/12/31 01:40:25;;;;;;;2.00;0.68;;;8.60;99.90;;;;;;4981687;28;20055;-85
2023/12/31 01:42:52;;;;;;;2.60;0.60;;;8.60;99.90;;;;;;4980057;28;20045;-88
2023/12/31 01:45:18;;;;;;;1.65;0.60;;;8.60;99.90;;;;;;4962115;28;20042;-84
2023/12/31 01:47:45;;;;;;;2.40;0.70;;;8.60;99.90;;;;;;4981804;28;20038;-83
2023/12/31 01:50:13;;;;;;;2.47;0.70;;;8.60;99.90;;;;;;4979180;28;20042;-86
2023/12/31 01:52:42;;;;;;;2.65;0.60;;;8.50;99.90;;;;;;4978802;28;20030;-84
2023/12/31 01:55:09;;;;;;;1.92;0.70;;;8.50;99.90;;;;;;4963104;28;20046;-86
2023/12/31 01:57:37;;;;;;;1.20;0.70;;;8.50;99.90;;;;;;4962973;28;20041;-81
2023/12/31 02:00:06;;;;;;;1.48;0.50;;;8.50;99.90;;;;;;4964198;28;20034;-87
2023/12/31 02:02:47;;;;;;;1.23;0.50;;;8.50;99.90;;;;;;4979266;28;20038;-77
2023/12/31 02:05:14;;;;;;;1.60;0.52;;;8.50;99.90;;;;;;4978043;28;20042;-84
2023/12/31 02:07:40;;;;;;;1.05;0.55;;;8.50;99.90;;;;;;4983017;28;20034;-79
2023/12/31 02:10:07;;;;;;;2.90;0.80;;;8.50;99.90;;;;;;4980058;28;20039;-84
2023/12/31 02:12:34;;;;;;;0.98;0.60;;;8.50;99.90;;;;;;4980346;28;20030;-86
2023/12/31 02:15:01;;;;;;;3.33;0.80;;;8.50;99.90;;;;;;4965887;28;20535;-88
2023/12/31 02:17:27;;;;;;;2.45;1.02;;;8.50;99.90;;;;;;4979715;28;20034;-81
2023/12/31 02:19:53;;;;;;;4.28;0.80;;;8.50;99.90;;;;;;4964255;28;20045;-90
2023/12/31 02:22:20;;;;;;;3.58;1.00;;;8.50;99.90;;;;;;4963060;28;20029;-77
2023/12/31 02:24:48;;;;;;;2.67;0.80;;;8.50;99.90;;;;;;4979263;28;20039;-87
2023/12/31 02:27:15;;;;;;;1.70;0.73;;;8.50;99.90;;;;;;4979413;28;20039;-91
2023/12/31 02:29:42;;;;;;;2.00;0.80;;;8.50;99.90;;;;;;4978485;28;20041;-81
2023/12/31 02:32:08;;;;;;;2.30;1.05;;;8.40;99.90;;;;;;4978994;28;20042;-88
2023/12/31 02:34:34;;;;;;;1.88;1.10;;;8.40;99.90;;;;;;4980528;28;20392;-89
2023/12/31 02:37:01;;;;;;;3.38;1.83;;;8.40;99.90;;;;;;4979478;28;20043;-86
2023/12/31 02:39:28;;;;;;;2.60;1.45;;;8.40;99.90;;;;;;4996766;28;20041;-91
2023/12/31 02:41:54;;;;;;;3.25;1.10;;;8.40;99.90;;;;;;4978825;28;20038;-88
2023/12/31 02:44:20;;;;;;;2.00;0.98;;;8.40;99.90;;;;;;4980163;28;20034;-87
2023/12/31 02:46:47;;;;;;;2.58;1.20;;;8.40;99.90;;;;;;4962193;28;20394;-82
2023/12/31 02:49:13;;;;;;;2.70;1.30;;;8.40;99.90;;;;;;4978999;28;20401;-85
2023/12/31 02:51:40;;;;;;;5.32;1.30;;;8.40;99.90;;;;;;4979155;28;20421;-76
2023/12/31 02:54:06;;;;;;;3.40;1.38;;;8.40;99.90;;;;;;4978860;28;20034;-86
2023/12/31 02:56:39;;;;;;;4.88;1.17;;;8.40;99.90;;;;;;4980030;28;20868;-86
2023/12/31 02:59:06;;;;;;;1.95;1.10;;;8.40;99.90;;;;;;4964548;28;20026;-90
2023/12/31 03:01:33;;;;;;;2.33;1.00;;;8.40;99.90;;;;;;4979491;28;21141;-77
2023/12/31 03:03:59;;;;;;;2.88;0.90;;;8.40;99.90;;;;;;4947609;28;20030;-80
2023/12/31 03:06:29;;;;;;;1.85;1.15;;;8.30;99.90;;;;;;4980041;28;20038;-88
2023/12/31 03:08:58;;;;;;;2.28;1.40;;;8.40;99.90;;;;;;4995348;28;20046;-87
2023/12/31 03:11:25;;;;;;;2.15;0.98;;;8.40;99.90;;;;;;4965425;28;20033;-75
2023/12/31 03:13:52;;;;;;;2.28;1.00;;;8.40;99.90;;;;;;5000670;28;20057;-81
2023/12/31 03:16:19;;;;;;;3.17;0.95;;;8.40;99.90;;;;;;4965862;28;20381;-83
2023/12/31 03:18:46;;;;;;;3.50;1.52;;;8.40;99.90;;;;;;4983794;28;20053;-85
2023/12/31 03:21:16;;;;;;;2.53;1.27;;;8.30;99.90;;;;;;4949759;28;20508;-85
2023/12/31 03:23:42;;;;;;;2.22;0.88;;;8.30;99.90;;;;;;4981675;28;20034;-86
2023/12/31 03:26:09;;;;;;;2.60;0.98;;;8.40;99.90;;;;;;4981813;28;20092;-84
2023/12/31 03:28:36;;;;;;;2.28;0.90;;;8.40;99.90;;;;;;4982894;28;20049;-87
2023/12/31 03:31:04;;;;;;;1.52;0.90;;;8.40;99.90;;;;;;4984586;28;20034;-84
2023/12/31 03:33:31;;;;;;;2.40;1.10;;;8.40;99.90;;;;;;4950383;28;20049;-78
2023/12/31 03:35:57;;;;;;;2.05;1.00;;;8.40;99.90;;;;;;4965412;28;20042;-87
2023/12/31 03:38:23;;;;;;;2.60;0.73;;;8.40;99.90;;;;;;4981055;28;20030;-88
2023/12/31 03:40:50;;;;;;;2.10;0.80;;;8.40;99.90;;;;;;4966660;28;20034;-87
2023/12/31 03:43:16;;;;;;;2.63;1.10;;;8.40;99.90;;;;;;4984843;28;20042;-80
2023/12/31 03:45:42;;;;;;;1.40;0.90;;;8.50;99.90;;;;;;5001621;28;20030;-84
2023/12/31 03:48:09;;;;;;;1.83;0.50;;;8.40;99.90;;;;;;4949661;28;20047;-89
2023/12/31 03:50:36;;;;;;;3.55;0.68;;;8.50;99.90;;;;;;4966388;28;20255;-89
2023/12/31 03:53:02;;;;;;;3.78;0.80;;;8.50;99.90;;;;;;4984553;28;20034;-88
2023/12/31 03:55:29;;;;;;;1.55;1.10;;;8.40;99.90;;;;;;4982039;28;20030;-84
2023/12/31 03:57:56;;;;;;;1.20;0.73;;;8.50;99.90;;;;;;4967668;28;20042;-85
2023/12/31 04:00:22;;;;;;;5.45;0.90;;;8.40;99.90;;;;;;4982785;28;20057;-84
2023/12/31 04:02:51;;;;;;;3.13;1.02;;;8.40;99.90;;;;;;4967628;28;20034;-89
2023/12/31 04:05:17;;;;;;;2.20;1.05;;;8.40;99.90;;;;;;4986206;28;20030;-87
2023/12/31 04:07:43;;;;;;;2.95;1.15;;;8.40;99.90;;;;;;4981962;28;20366;-76
2023/12/31 04:10:11;;;;;;;2.33;0.90;;;8.40;99.90;;;;;;4997457;28;20038;-89
2023/12/31 04:12:37;;;;;;;3.03;0.93;;;8.30;99.90;;;;;;4964027;28;20793;-80
2023/12/31 04:15:07;;;;;;;2.10;1.00;;;8.30;99.90;;;;;;4984180;28;20042;-86
2023/12/31 04:17:34;;;;;;;1.30;0.90;;;8.40;99.90;;;;;;4981211;28;20038;-86
2023/12/31 04:20:02;;;;;;;3.13;1.17;;;8.30;99.90;;;;;;4967828;28;20501;-83
2023/12/31 04:22:28;;;;;;;4.80;1.40;;;8.30;99.90;;;;;;4999183;28;20035;-79
2023/12/31 04:24:56;;;;;;;2.90;1.30;;;8.30;99.90;;;;;;4982959;28;20034;-84
2023/12/31 04:27:22;;;;;;;2.22;1.10;;;8.30;99.90;;;;;;4985131;28;20042;-88
2023/12/31 04:29:48;;;;;;;2.85;1.00;;;8.30;99.90;;;;;;4966853;28;20382;-84
2023/12/31 04:32:16;;;;;;;3.83;1.63;;;8.30;99.90;;;;;;4967693;28;20026;-74
2023/12/31 04:34:44;;;;;;;2.15;1.00;;;8.30;99.90;;;;;;4982952;28;20034;-87
2023/12/31 04:37:10;;;;;;;1.77;0.95;;;8.30;99.90;;;;;;4984428;28;20026;-88
2023/12/31 04:39:37;;;;;;;2.80;1.10;;;8.40;99.90;;;;;;4983118;28;20041;-87
2023/12/31 04:42:04;;;;;;;2.22;1.27;;;8.40;99.90;;;;;;4964232;28;20034;-81
2023/12/31 04:44:31;;;;;;;2.78;1.75;;;8.40;99.90;;;;;;4997292;28;20117;-84
2023/12/31 04:46:57;;;;;;;3.33;1.05;;;8.40;99.90;;;;;;4981692;28;20065;-89
2023/12/31 04:49:23;;;;;;;3.38;1.20;;;8.40;99.90;;;;;;4980514;28;20038;-89
2023/12/31 04:51:49;;;;;;;4.97;1.50;;;8.40;99.90;;;;;;4982361;28;20034;-74
2023/12/31 04:54:16;;;;;;;3.17;1.05;;;8.40;99.90;;;;;;5000230;28;20030;-90
2023/12/31 04:56:42;;;;;;;2.58;1.25;;;8.50;99.90;;;;;;4997179;28;20041;-86
2023/12/31 04:59:09;;;;;;;1.92;1.50;;;8.40;99.90;;;;;;4981442;28;20061;-88
2023/12/31 05:01:35;;;;;;;2.05;1.27;;;8.50;99.90;;;;;;4983122;28;20364;-84
2023/12/31 05:04:02;;;;;;;1.45;0.90;;;8.50;99.90;;;;;;4981128;28;20393;-74
2023/12/31 05:06:28;;;;;;;3.03;1.20;;;8.50;99.90;;;;;;4980704;28;20041;-88
2023/12/31 05:08:54;;;;;;;2.08;1.10;;;8.50;99.90;;;;;;4965820;28;20584;-85
2023/12/31 05:11:22;;;;;;;2.58;1.00;;;8.50;99.90;;;;;;4964956;28;20504;-83
2023/12/31 05:13:48;;;;;;;2.70;1.45;;;8.50;99.90;;;;;;4949797;28;20034;-75
2023/12/31 05:16:14;;;;;;;2.58;1.33;;;8.40;99.90;;;;;;4983707;28;20026;-86
2023/12/31 05:18:46;;;;;;;2.55;1.65;;;8.50;99.90;;;;;;4998361;28;20034;-83
2023/12/31 05:21:12;;;;;;;2.65;1.45;;;8.40;99.90;;;;;;4981449;28;20046;-86
2023/12/31 05:23:39;;;;;;;2.60;1.77;;;8.40;99.90;;;;;;4997759;28;20362;-78
2023/12/31 05:26:05;;;;;;;2.47;1.63;;;8.40;99.90;;;;;;4981680;28;20506;-84
2023/12/31 05:28:32;;;;;;;3.30;2.25;;;8.40;99.90;;;;;;4964902;28;20038;-85
2023/12/31 05:30:58;;;;;;;3.95;1.75;;;8.40;99.90;;;;;;4985523;28;20035;-90
2023/12/31 05:33:24;;;;;;;4.03;2.25;;;8.40;99.90;;;;;;4983904;28;20030;-89
2023/12/31 05:35:51;;;;;;;4.28;2.33;;;8.40;99.90;;;;;;4981344;28;20026;-92
2023/12/31 05:38:17;;;;;;;6.85;2.63;;;8.40;99.90;;;;;;4981131;28;20030;-84
2023/12/31 05:40:43;;;;;;;4.18;2.30;;;8.50;99.90;;;;;;4997004;28;20038;-83
2023/12/31 05:43:10;;;;;;;2.85;2.47;;;8.50;99.90;;;;;;4998209;28;20588;-89
2023/12/31 05:45:37;;;;;;;4.22;2.50;;;8.50;99.90;;;;;;4963582;28;20049;-89
2023/12/31 05:48:04;;;;;;;4.63;2.65;;;8.50;99.90;;;;;;4980845;28;20041;-87
2023/12/31 05:50:30;;;;;;;4.50;3.33;;;8.50;99.90;;;;;;4982666;28;20441;-81
2023/12/31 05:52:57;;;;;;;4.15;2.95;;;8.50;99.90;;;;;;4982482;28;20042;-86
2023/12/31 05:55:23;;;;;;;5.85;3.10;;;8.50;99.90;;;;;;4948318;28;20417;-81
2023/12/31 05:57:50;;;;;;;3.85;3.40;;;8.50;99.90;;;;;;4980845;28;20034;-90
2023/12/31 06:00:17;;;;;;;5.05;4.03;;;8.50;99.90;;;;;;4978919;28;20034;-81
2023/12/31 06:02:43;;;;;;;4.70;3.38;;;8.50;99.90;;;;;;4980642;28;20042;-82
2023/12/31 06:05:09;;;;;;;5.55;2.95;;;8.60;99.90;;;;;;4963964;28;20031;-89
2023/12/31 06:07:36;;;;;;;5.07;3.22;;;8.60;99.90;;;;;;4980051;28;20034;-86
2023/12/31 06:10:03;;;;;;;3.72;3.35;;;8.70;99.90;;;;;;4981386;28;20033;-85
2023/12/31 06:12:31;;;;;;;4.22;3.47;;;8.70;99.90;;;;;;4995294;28;20037;-85
2023/12/31 06:15:06;;;;;;;3.42;3.00;;;8.70;99.90;;;;;;4995154;28;20030;-90
2023/12/31 06:17:35;;;;;;;5.00;3.97;;;8.70;99.90;;;;;;4962347;28;20122;-86
2023/12/31 06:20:04;;;;;;;7.32;4.03;;;8.80;99.90;;;;;;4963363;28;20042;-89
2023/12/31 06:22:30;;;;;;;5.95;3.33;;;8.80;99.90;;;;;;4980674;28;20034;-85
2023/12/31 06:24:57;;;;;;;5.47;2.38;;;8.80;99.90;;;;;;4979812;28;20049;-87
2023/12/31 06:27:24;;;;;;;4.15;3.40;;;8.80;99.90;;;;;;4981243;28;20038;-74
2023/12/31 06:29:50;;;;;;;3.63;2.75;;;8.80;99.90;;;;;;4995856;28;20042;-87
2023/12/31 06:32:18;;;;;;;4.38;3.17;;;8.80;99.90;;;;;;4980675;28;20045;-88
2023/12/31 06:34:44;;;;;;;4.90;3.47;;;8.90;99.90;;;;;;4949698;28;20058;-79
2023/12/31 06:37:11;;;;;;;4.00;3.13;;;8.90;99.90;;;;;;4981185;28;20038;-82
2023/12/31 06:39:37;;;;;;;3.45;2.95;;;8.90;99.90;;;;;;4949677;28;20038;-88
2023/12/31 06:42:04;;;;;;;3.80;3.40;;;8.80;99.90;;;;;;4978708;28;20419;-87
2023/12/31 06:44:30;;;;;;;3.97;2.63;;;8.80;99.90;;;;;;4978256;28;20026;-82
2023/12/31 06:46:57;;;;;;;4.70;2.75;;;8.80;99.90;;;;;;4981497;28;20555;-74
2023/12/31 06:49:23;;;;;;;4.45;3.53;;;8.80;99.90;;;;;;4983958;28;20034;-77
2023/12/31 06:51:49;;;;;;;3.50;3.00;;;8.80;99.90;;;;;;4982349;28;20043;-77
2023/12/31 06:54:15;;;;;;;3.55;3.22;;;8.80;99.90;;;;;;4968742;28;20030;-85
2023/12/31 06:56:42;;;;;;;4.35;3.47;;;8.80;99.90;;;;;;4982973;28;20408;-86
2023/12/31 06:59:08;;;;;;;3.67;3.15;;;8.80;99.90;;;;;;4986513;28;20037;-87
2023/12/31 07:01:34;;;;;;;4.40;3.08;;;8.70;99.90;;;;;;4984282;28;20038;-80
2023/12/31 07:04:01;;;;;;;4.15;2.95;;;8.70;99.90;;;;;;4966997;28;20038;-88
2023/12/31 07:06:27;;;;;;;4.05;3.13;;;8.70;99.90;;;;;;4982544;28;20041;-85
2023/12/31 07:08:53;;;;;;;5.10;3.17;;;8.70;99.90;;;;;;4985044;28;20041;-84
2023/12/31 07:11:20;;;;;;;4.47;3.22;;;8.70;99.90;;;;;;4981338;28;20041;-87
2023/12/31 07:13:46;;;;;;;4.47;2.80;;;8.70;99.90;;;;;;5005737;28;20432;-79
2023/12/31 07:16:14;;;;;;;4.25;3.33;;;8.70;99.90;;;;;;4982897;28;20412;-88
2023/12/31 07:18:41;;;;;;;3.47;2.78;;;8.70;99.90;;;;;;4964986;28;20258;-84
2023/12/31 07:21:07;;;;;;;4.13;3.15;;;8.70;99.90;;;;;;4985301;28;20029;-76
2023/12/31 07:23:33;;;;;;;6.70;3.45;;;8.70;99.90;;;;;;4981922;28;20035;-84
2023/12/31 07:26:00;;;;;;;4.28;3.85;;;8.70;99.90;;;;;;4982644;28;20042;-86
2023/12/31 07:28:26;;;;;;;6.88;3.38;;;8.70;99.90;;;;;;4984218;28;20045;-88
2023/12/31 07:30:52;;;;;;;4.60;3.58;;;8.70;99.90;;;;;;4983693;28;20057;-80
2023/12/31 07:33:19;;;;;;;5.43;3.75;;;8.70;99.90;;;;;;4981727;28;20034;-74
2023/12/31 07:35:45;;;;;;;5.15;3.45;;;8.70;99.90;;;;;;4983860;28;20023;-81
2023/12/31 07:38:11;;;;;;;3.88;3.47;;;8.70;99.90;;;;;;4965525;28;20043;-89
2023/12/31 07:40:38;;;;;;;4.65;2.97;;;8.70;99.90;;;;;;4982590;28;20037;-86
2023/12/31 07:43:04;;;;;;;5.38;3.72;;;8.70;99.90;;;;;;4985065;28;20026;-87
2023/12/31 07:45:31;;;;;;;4.78;3.75;;;8.70;99.90;;;;;;4980755;28;20029;-87
2023/12/31 07:47:57;;;;;;;3.97;3.03;;;8.70;99.90;;;;;;4984893;28;20026;-85
2023/12/31 07:50:23;;;;;;;5.78;3.63;;;8.80;99.90;;;;;;4967443;28;20038;-84
2023/12/31 07:52:50;;;;;;;3.90;3.22;;;8.70;99.90;;;;;;4981929;28;20034;-90
2023/12/31 07:55:17;;;;;;;4.60;3.40;;;8.80;99.90;;;;;;4983777;28;20416;-87
2023/12/31 07:57:43;;;;;;;5.25;3.85;;;8.80;99.90;;;;;;4983181;28;20501;-82
2023/12/31 08:00:10;;;;;;;4.43;3.92;;;8.80;99.90;;;;;;4967525;28;20049;-88
2023/12/31 08:02:40;;;;;;;5.85;3.70;;;8.80;99.90;;;;;;4984195;28;20489;-82
2023/12/31 08:05:06;;;;;;;4.70;3.17;;;8.80;99.90;;;;;;4967932;28;20039;-82
2023/12/31 08:07:33;;;;;;;5.00;3.67;;;8.80;99.90;;;;;;4982196;28;20026;-89
2023/12/31 08:09:59;;;;;;;7.22;4.13;;;8.80;99.90;;;;;;4983634;28;20495;-87
2023/12/31 08:12:25;;;;;;;7.57;4.68;;;8.80;99.90;;;;;;4968027;28;20034;-87
2023/12/31 08:14:52;;;;;;;7.05;4.40;;;8.80;99.90;;;;;;4997935;28;20050;-80
2023/12/31 08:17:18;;;;;;;4.32;3.55;;;8.80;99.90;;;;;;4982763;28;20038;-85
2023/12/31 08:19:45;;;;;;;4.78;4.03;;;8.80;99.90;;;;;;4982963;28;20034;-82
2023/12/31 08:22:12;;;;;;;5.32;4.20;;;8.80;99.90;;;;;;4967188;28;20033;-85
2023/12/31 08:24:38;;;;;;;5.53;4.68;;;8.80;99.90;;;;;;4981583;28;20031;-85
2023/12/31 08:27:05;;;;;;;7.60;5.82;;;8.90;99.90;;;;;;4968164;28;20050;-86
2023/12/31 08:29:31;;;;;;;5.63;5.13;;;8.90;99.90;;;;;;4965599;28;20039;-87
2023/12/31 08:31:57;;;;;;;6.68;4.88;;;8.90;99.90;;;;;;4966607;28;20073;-80
2023/12/31 08:34:24;;;;;;;6.43;4.53;;;8.90;99.90;;;;;;4982643;28;20026;-87
2023/12/31 08:36:50;;;;;;;5.53;3.72;;;8.90;99.90;;;;;;4982658;28;20532;-84
2023/12/31 08:39:16;;;;;;;5.65;4.50;;;9.00;99.90;;;;;;4950455;28;20856;-84
2023/12/31 08:41:43;;;;;;;4.68;4.15;;;9.00;99.90;;;;;;4966956;28;20067;-86
2023/12/31 08:44:09;;;;;;;5.85;4.55;;;9.00;99.90;;;;;;4951081;28;20465;-86
2023/12/31 08:46:36;;;;;;;6.00;4.28;;;9.10;99.90;;;;;;4967066;28;20570;-90
2023/12/31 08:49:02;;;;;;;4.85;3.97;;;9.10;99.90;;;;;;4985235;28;20034;-84
2023/12/31 08:51:28;;;;;;;5.20;4.20;;;9.10;99.90;;;;;;5003061;28;20042;-85
2023/12/31 08:53:55;;;;;;;6.65;4.25;;;9.10;99.90;;;;;;4969606;28;20037;-90
2023/12/31 08:56:21;;;;;;;4.72;4.00;;;9.20;99.90;;;;;;4984190;28;20022;-87
2023/12/31 08:58:47;;;;;;;6.10;4.63;;;9.20;99.90;;;;;;4998510;28;20034;-83
2023/12/31 09:01:14;;;;;;;5.60;4.45;;;9.20;99.90;;;;;;4983159;28;20026;-85
2023/12/31 09:03:40;;;;;;;5.80;3.90;;;9.30;99.90;;;;;;4966644;28;20851;-87
2023/12/31 09:06:10;;;;;;;5.65;3.85;;;9.30;99.90;;;;;;4964287;28;20445;-84
2023/12/31 09:08:36;;;;;;;5.35;3.35;;;9.20;99.90;;;;;;4980332;28;20042;-86
2023/12/31 09:11:02;;;;;;;4.90;4.10;;;9.30;99.90;;;;;;4964041;28;20042;-83
2023/12/31 09:13:29;;;;;;;4.70;3.67;;;9.30;99.90;;;;;;4983233;28;20031;-84
2023/12/31 09:15:55;;;;;;;5.00;4.00;;;9.30;99.90;;;;;;4983456;28;20041;-86
2023/12/31 09:18:23;;;;;;;6.05;4.07;;;9.30;99.90;;;;;;4964717;28;20377;-80
2023/12/31 09:20:50;;;;;;;4.03;3.22;;;9.40;99.90;;;;;;4980422;28;20042;-86
2023/12/31 09:23:19;;;;;;;5.07;3.28;;;9.40;99.90;;;;;;4981082;28;20026;-80
2023/12/31 09:25:45;;;;;;;3.47;3.03;;;9.40;99.90;;;;;;4983469;28;20045;-85
2023/12/31 09:28:12;;;;;;;5.70;3.63;;;9.50;99.90;;;;;;4982432;28;20034;-91
2023/12/31 09:30:38;;;;;;;4.93;3.95;;;9.60;99.90;;;;;;4983047;28;20022;-90
2023/12/31 09:33:04;;;;;;;3.42;3.13;;;9.60;99.90;;;;;;4981901;28;20034;-84
2023/12/31 09:35:30;;;;;;;3.60;3.13;;;9.60;99.90;;;;;;4985342;28;20018;-83
2023/12/31 09:37:57;;;;;;;5.03;3.60;;;9.70;99.90;;;;;;4965942;28;20042;-85
2023/12/31 09:40:23;;;;;;;4.28;3.70;;;9.70;99.90;;;;;;4950121;28;20037;-90
2023/12/31 09:42:50;;;;;;;5.63;4.10;;;9.70;99.90;;;;;;4949542;28;20038;-88
2023/12/31 09:45:21;;;;;;;4.07;3.67;;;9.70;99.90;;;;;;4981402;28;20027;-86
2023/12/31 09:47:49;;;;;;;4.90;3.63;;;9.70;99.90;;;;;;4981893;28;20503;-84
2023/12/31 09:50:21;;;;;;;4.22;3.33;;;9.80;99.90;;;;;;4994824;28;20049;-88
2023/12/31 09:52:48;;;;;;;4.30;3.28;;;9.70;99.90;;;;;;4966595;28;20381;-83
2023/12/31 09:55:16;;;;;;;4.35;3.40;;;9.80;99.90;;;;;;4996682;28;20022;-83
2023/12/31 09:57:43;;;;;;;3.85;3.15;;;9.80;99.90;;;;;;4981624;28;21982;-88
2023/12/31 10:00:10;;;;;;;4.07;2.40;;;9.80;99.90;;;;;;4995188;28;20042;-82
2023/12/31 10:02:37;;;;;;;4.18;2.10;;;9.80;99.90;;;;;;4964967;28;20054;-82
2023/12/31 10:05:04;;;;;;;2.97;2.30;;;9.80;99.90;;;;;;4946803;28;20069;-90
2023/12/31 10:07:31;;;;;;;2.53;2.08;;;9.80;99.90;;;;;;4977911;28;20026;-85
2023/12/31 10:09:59;;;;;;;2.28;2.00;;;9.80;99.90;;;;;;4979185;28;20042;-87
2023/12/31 10:12:27;;;;;;;3.00;2.30;;;9.90;99.90;;;;;;4980759;28;20057;-83
2023/12/31 10:14:54;;;;;;;2.88;2.13;;;10.00;99.90;;;;;;4978898;28;20030;-85
2023/12/31 10:17:21;;;;;;;4.55;1.92;;;10.00;99.90;;;;;;4978612;28;20484;-81
2023/12/31 10:19:48;;;;;;;1.98;1.35;;;10.00;99.90;;;;;;4962800;28;20030;-85
2023/12/31 10:22:14;;;;;;;1.77;1.17;;;10.00;99.90;;;;;;4983314;28;20022;-87
2023/12/31 10:24:43;;;;;;;3.53;1.25;;;10.00;99.90;;;;;;4982329;28;20030;-87
2023/12/31 10:27:11;;;;;;;2.58;1.60;;;10.10;99.90;;;;;;4985107;28;20062;-84
2023/12/31 10:29:38;;;;;;;2.83;1.40;;;10.10;99.90;;;;;;4986166;28;20026;-77
2023/12/31 10:32:06;;;;;;;3.03;1.58;;;10.10;99.90;;;;;;4983116;28;20380;-84
2023/12/31 10:34:32;;;;;;;2.60;1.45;;;10.10;99.90;;;;;;4951751;28;20022;-89
2023/12/31 10:37:05;;;;;;;2.53;1.75;;;10.10;99.90;;;;;;4983687;28;20377;-83
2023/12/31 10:39:33;;;;;;;;;;;10.10;99.90;;;;;;4970028;28;20037;-83
2023/12/31 10:42:08;;;;;;;2.03;1.33;;;10.10;99.90;;;;;;4999857;28;19906;-88
2023/12/31 10:44:38;;;;;;;3.03;1.65;;;10.10;99.90;;;;;;4968075;28;20037;-87
2023/12/31 10:47:07;;;;;;;3.40;1.48;;;10.10;99.90;;;;;;4981690;28;20034;-83
2023/12/31 10:49:34;;;;;;;2.28;1.10;;;10.00;99.90;;;;;;4969003;28;20432;-84
2023/12/31 10:52:02;;;;;;;2.50;1.35;;;10.10;99.90;;;;;;4985951;28;20440;-74
2023/12/31 10:54:49;;;;;;;2.17;1.20;;;10.10;99.90;;;;;;4981170;28;20041;-80
2023/12/31 10:57:21;;;;;;;1.80;1.00;;;10.10;99.90;;;;;;4965942;28;20033;-85
2023/12/31 10:59:50;;;;;;;2.03;1.45;;;10.10;99.90;;;;;;4984215;28;20053;-91
2023/12/31 11:02:20;;;;;;;2.00;1.38;;;10.20;99.90;;;;;;5000198;28;20488;-85
2023/12/31 11:04:48;;;;;;;3.47;1.92;;;10.20;99.90;;;;;;4999744;28;20030;-90
2023/12/31 11:07:19;;;;;;;2.55;1.30;;;10.20;99.90;;;;;;4984810;28;20030;-84
2023/12/31 11:09:46;;;;;;;2.42;1.40;;;10.20;99.90;;;;;;4984081;28;20042;-82
2023/12/31 11:12:14;;;;;;;2.65;1.80;;;10.20;99.90;;;;;;4982773;28;20050;-88
2023/12/31 11:14:52;;;;;;;4.72;1.67;;;10.20;99.90;;;;;;4981874;28;20061;-81
2023/12/31 11:17:31;;;;;;;2.78;1.85;;;10.20;99.90;;;;;;4983494;28;20030;-75
2023/12/31 11:20:09;;;;;;;3.20;1.25;;;10.10;99.90;;;;;;4982846;28;20038;-83
2023/12/31 11:23:01;;;;;;;3.90;1.55;;;10.00;99.90;;;;;;4980732;28;20046;-84
2023/12/31 11:25:27;;;;;;;3.28;1.08;;;9.90;99.90;;;;;;4980889;28;20042;-87
2023/12/31 11:27:55;;;;;;;2.92;0.95;;;9.90;99.90;;;;;;4982823;28;20030;-77
2023/12/31 11:30:43;;;;;;;2.65;0.73;;;10.00;99.90;;;;;;4983359;28;20042;-86
2023/12/31 11:33:10;;;;;;;3.05;0.98;;;10.00;99.90;;;;;;4983381;28;20397;-81
2023/12/31 11:35:46;;;;;;;3.80;0.70;;;10.10;99.90;;;;;;4983910;28;20038;-83
2023/12/31 11:38:14;;;;;;;2.78;1.23;;;10.10;99.90;;;;;;4970829;28;20057;-84
2023/12/31 11:40:41;;;;;;;3.22;0.63;;;10.10;99.90;;;;;;4994207;28;20042;-89
2023/12/31 11:43:13;;;;;;;3.72;0.75;;;10.10;99.90;;;;;;5000659;28;20034;-79
2023/12/31 11:45:41;;;;;;;2.30;0.60;;;10.20;99.90;;;;;;4983684;28;20037;-86
2023/12/31 11:48:17;;;;;;;2.33;0.60;;;10.20;99.90;;;;;;4967063;28;20301;-86
2023/12/31 11:50:46;;;;;;;2.72;0.82;;;10.20;99.90;;;;;;4963676;28;20426;-80
2023/12/31 11:53:13;;;;;;;1.40;0.60;;;10.20;99.90;;;;;;4981114;28;20035;-82
2023/12/31 11:55:40;;;;;;;3.25;0.70;;;10.20;99.90;;;;;;4998014;28;20419;-88
2023/12/31 11:58:08;;;;;;;4.03;0.73;;;10.10;99.90;;;;;;4982088;28;20038;-91
2023/12/31 12:00:35;;;;;;;2.67;1.05;;;10.10;99.90;;;;;;4947238;28;20046;-84
2023/12/31 12:03:02;;;;;;;6.28;4.63;;;10.00;99.90;;;;;;4980677;28;21269;-86
2023/12/31 12:05:29;;;;;;;6.75;3.42;;;10.00;99.90;;;;;;4983453;28;20034;-86
2023/12/31 12:07:55;;;;;;;6.30;1.92;;;10.00;99.90;;;;;;4981533;28;20041;-78
2023/12/31 12:10:22;;;;;;;2.67;1.38;;;10.00;99.90;;;;;;4948287;28;20049;-87
2023/12/31 12:12:53;;;;;;;3.05;1.30;;;9.90;99.90;;;;;;4981301;28;20061;-87
2023/12/31 12:15:20;;;;;;;2.17;0.93;;;9.80;99.90;;;;;;4983069;28;20235;-81
2023/12/31 12:17:46;;;;;;;3.70;1.25;;;9.70;99.90;;;;;;4965227;28;20031;-90
2023/12/31 12:20:13;;;;;;;3.47;0.90;;;9.70;99.90;;;;;;4984037;28;20041;-87
2023/12/31 12:22:39;;;;;;;6.13;1.30;;;9.60;99.90;;;;;;4981476;28;20034;-82
2023/12/31 12:25:07;;;;;;;2.20;0.85;;;9.70;99.90;;;;;;4963998;28;20042;-86
2023/12/31 12:27:36;;;;;;;4.63;1.45;;;9.70;99.90;;;;;;4981528;28;20030;-86
2023/12/31 12:30:03;;;;;;;3.53;1.35;;;9.70;99.90;;;;;;4985285;28;20022;-86
2023/12/31 12:32:31;;;;;;;3.47;1.17;;;9.70;99.90;;;;;;4966342;28;20038;-85
2023/12/31 12:35:02;;;;;;;4.35;1.23;;;9.80;99.90;;;;;;4963783;28;20592;-87
2023/12/31 12:37:29;;;;;;;5.30;1.10;;;9.80;99.90;;;;;;4983449;28;20049;-85
2023/12/31 12:39:56;;;;;;;3.67;1.52;;;9.90;99.90;;;;;;4983103;28;20038;-86
2023/12/31 12:42:25;;;;;;;6.10;1.40;;;9.90;99.90;;;;;;4984512;28;20030;-89
2023/12/31 12:44:55;;;;;;;2.85;1.27;;;9.90;99.90;;;;;;4985340;28;20026;-88
2023/12/31 12:47:21;;;;;;;2.17;0.93;;;9.90;99.90;;;;;;4984235;28;20250;-86
2023/12/31 12:49:48;;;;;;;4.50;1.00;;;10.00;99.90;;;;;;4954039;28;20034;-85
2023/12/31 12:52:14;;;;;;;2.10;0.80;;;10.00;99.90;;;;;;4983878;28;20061;-84